Spirit Of New York — WCW9332 — position and weather

sailwx.info

Track history (hours):
 
Tides and Currents Weather Stations Pressure Air Temp Water Temp Dewpoint Dewpoint Depression Visibility Wind Speed Wind Dir Waves Ship Positions

Spirit Of New York

Owner: SPIRIT CRUISES LLC, NEW YORK, NY. More information available from US FCC via Universal Licensing System and Coast Guard Vessel Documentation Center.

Last reported at 2014-Oct-24 02:04 UTC. Time now 2014-Oct-24 08:41 UTC.
Position N 40°45' W 074°01'.

Length 62 m.

Type: Passenger vessel. MMSI: 338897000.

Date/timePositionNaut miles runAvg speedWind from/ knotsBaromVisibWave heightAir tempDewpointWater temp
2014-Oct-24 02:04N 40°45' W 074°01'1 2.1
2014-Oct-24 01:33N 40°44' W 074°01'2 1.7
2014-Oct-24 00:33N 40°42' W 073°60'3 3.2
2014-Oct-23 23:33N 40°46' W 074°00'1 0.7
2014-Oct-23 22:33N 40°45' W 074°01'0 0.0
2014-Oct-23 21:33N 40°45' W 074°01'  
2014-Oct-20 01:33N 40°44' W 074°01'2 1.7
2014-Oct-20 00:33N 40°42' W 074°00'3 3.3
2014-Oct-19 23:33N 40°45' W 074°01'1 0.6
2014-Oct-19 22:33N 40°45' W 074°01'0 0.0
2014-Oct-19 21:34N 40°45' W 074°01'0 0.0
2014-Oct-19 20:33N 40°45' W 074°01'0 0.0
2014-Oct-19 02:18N 40°45' W 074°01'1 1.2
2014-Oct-19 01:34N 40°44' W 074°01'2 2.1
2014-Oct-19 00:34N 40°42' W 074°00'3 3.5
2014-Oct-18 23:34N 40°45' W 074°01'0 0.1
2014-Oct-18 18:33N 40°46' W 074°01'1 0.5
2014-Oct-18 16:32N 40°47' W 073°60'2 1.8
2014-Oct-18 15:33N 40°45' W 074°01'0 0.0
2014-Oct-18 02:03N 40°45' W 074°01'2 3.1
2014-Oct-18 01:33N 40°43' W 074°01'2 1.6
2014-Oct-18 00:33N 40°42' W 073°60'3 3.5
2014-Oct-17 23:33N 40°46' W 074°00'1 1.0
2014-Oct-17 22:33N 40°45' W 074°01'0 0.0
2014-Oct-17 21:33N 40°45' W 074°01'0 0.0
2014-Oct-17 20:33N 40°45' W 074°01'0 0.0
2014-Oct-17 19:33N 40°45' W 074°01'0 0.0
2014-Oct-17 18:33N 40°45' W 074°01'2 1.8
2014-Oct-17 17:33N 40°43' W 074°01'1 0.8
2014-Oct-17 16:33N 40°42' W 074°02'3 2.5
2014-Oct-17 15:33N 40°45' W 074°01'0 0.0
2014-Oct-17 14:34N 40°45' W 074°01'1 0.1
2014-Oct-17 01:34N 40°44' W 074°01'2 2.3
2014-Oct-17 00:33N 40°42' W 074°01'3 3.5
2014-Oct-16 23:34N 40°45' W 074°01'0 0.4
2014-Oct-16 22:33N 40°45' W 074°01'1 0.0
2014-Oct-16 01:33N 40°44' W 074°01'2 1.9
2014-Oct-16 00:30N 40°42' W 074°00'4 3.8
2014-Oct-15 23:34N 40°46' W 074°01'1 0.8
2014-Oct-15 22:33N 40°45' W 074°01'0 0.0
2014-Oct-15 21:33N 40°45' W 074°01'0 0.0
2014-Oct-15 20:33N 40°45' W 074°01'0 0.0
2014-Oct-14 18:27N 40°45' W 074°01'1 1.2
2014-Oct-14 17:33N 40°44' W 074°01'1 1.1
2014-Oct-14 16:32N 40°43' W 074°02'  
Track history (hours):
 
Tides and Currents Weather Stations Pressure Air Temp Water Temp Dewpoint Dewpoint Depression Visibility Wind Speed Wind Dir Waves Ship Positions

Spirit Of New York

Owner: SPIRIT CRUISES LLC, NEW YORK, NY. More information available from US FCC via Universal Licensing System and Coast Guard Vessel Documentation Center.

Last reported at 2014-Oct-24 02:04 UTC. Time now 2014-Oct-24 08:41 UTC.
Position N 40°45' W 074°01'.

Length 62 m.

Type: Passenger vessel. MMSI: 338897000.

Date/timePositionNaut miles runAvg speedWind from/ knotsBaromVisibWave heightAir tempDewpointWater temp
2014-Oct-24 02:04N 40°45' W 074°01'1 2.1
2014-Oct-24 01:33N 40°44' W 074°01'2 1.7
2014-Oct-24 00:33N 40°42' W 073°60'3 3.2
2014-Oct-23 23:33N 40°46' W 074°00'1 0.7
2014-Oct-23 22:33N 40°45' W 074°01'0 0.0
2014-Oct-23 21:33N 40°45' W 074°01'  
2014-Oct-20 01:33N 40°44' W 074°01'2 1.7
2014-Oct-20 00:33N 40°42' W 074°00'3 3.3
2014-Oct-19 23:33N 40°45' W 074°01'1 0.6
2014-Oct-19 22:33N 40°45' W 074°01'0 0.0
2014-Oct-19 21:34N 40°45' W 074°01'0 0.0
2014-Oct-19 20:33N 40°45' W 074°01'0 0.0
2014-Oct-19 02:18N 40°45' W 074°01'1 1.2
2014-Oct-19 01:34N 40°44' W 074°01'2 2.1
2014-Oct-19 00:34N 40°42' W 074°00'3 3.5
2014-Oct-18 23:34N 40°45' W 074°01'0 0.1
2014-Oct-18 18:33N 40°46' W 074°01'1 0.5
2014-Oct-18 16:32N 40°47' W 073°60'2 1.8
2014-Oct-18 15:33N 40°45' W 074°01'0 0.0
2014-Oct-18 02:03N 40°45' W 074°01'2 3.1
2014-Oct-18 01:33N 40°43' W 074°01'2 1.6
2014-Oct-18 00:33N 40°42' W 073°60'3 3.5
2014-Oct-17 23:33N 40°46' W 074°00'1 1.0
2014-Oct-17 22:33N 40°45' W 074°01'0 0.0
2014-Oct-17 21:33N 40°45' W 074°01'0 0.0
2014-Oct-17 20:33N 40°45' W 074°01'0 0.0
2014-Oct-17 19:33N 40°45' W 074°01'0 0.0
2014-Oct-17 18:33N 40°45' W 074°01'2 1.8
2014-Oct-17 17:33N 40°43' W 074°01'1 0.8
2014-Oct-17 16:33N 40°42' W 074°02'3 2.5
2014-Oct-17 15:33N 40°45' W 074°01'0 0.0
2014-Oct-17 14:34N 40°45' W 074°01'1 0.1
2014-Oct-17 01:34N 40°44' W 074°01'2 2.3
2014-Oct-17 00:33N 40°42' W 074°01'3 3.5
2014-Oct-16 23:34N 40°45' W 074°01'0 0.4
2014-Oct-16 22:33N 40°45' W 074°01'1 0.0
2014-Oct-16 01:33N 40°44' W 074°01'2 1.9
2014-Oct-16 00:30N 40°42' W 074°00'4 3.8
2014-Oct-15 23:34N 40°46' W 074°01'1 0.8
2014-Oct-15 22:33N 40°45' W 074°01'0 0.0
2014-Oct-15 21:33N 40°45' W 074°01'0 0.0
2014-Oct-15 20:33N 40°45' W 074°01'0 0.0
2014-Oct-14 18:27N 40°45' W 074°01'1 1.2
2014-Oct-14 17:33N 40°44' W 074°01'1 1.1
2014-Oct-14 16:32N 40°43' W 074°02'  

Dump ship's entire track history